Time;durP1;ratioP1;P1;durP2;ratioP2;P2;SDS_P1;SDS_P2;PMS_P1;PMS_P2;Temp;Humidity;BMP_temperature;BMP_pressure;BME280_temperature;BME280_humidity;BME280_pressure;Samples;Min_cycle;Max_cycle;Signal;HPM_P1;HPM_P2
2023/06/23 00:00:01;;;;;;;12.05;9.35;;;;;;;21.68;100.00;98419.56;5095062;28;20184;-58
2023/06/23 00:02:30;;;;;;;13.23;10.30;;;;;;;21.77;100.00;98434.28;5095349;28;20183;-56
2023/06/23 00:04:55;;;;;;;10.35;9.30;;;;;;;21.68;100.00;98416.91;5095196;28;20634;-56
2023/06/23 00:07:21;;;;;;;11.40;9.63;;;;;;;21.69;100.00;98423.81;5072343;28;20208;-56
2023/06/23 00:09:46;;;;;;;10.77;9.70;;;;;;;21.85;100.00;98452.72;5072748;28;20570;-56
2023/06/23 00:12:12;;;;;;;11.18;9.57;;;;;;;21.86;100.00;98449.06;5072477;28;20294;-56
2023/06/23 00:14:37;;;;;;;12.35;9.50;;;;;;;21.76;100.00;98422.13;5072464;28;20183;-56
2023/06/23 00:17:03;;;;;;;11.30;10.07;;;;;;;21.90;100.00;98450.34;5072386;28;20191;-56
2023/06/23 00:19:31;;;;;;;11.73;9.60;;;;;;;21.82;100.00;98442.50;5072319;28;20570;-56
2023/06/23 00:21:57;;;;;;;9.52;8.63;;;;;;;21.81;100.00;98438.22;5072271;28;20196;-56
2023/06/23 00:24:22;;;;;;;10.00;9.05;;;;;;;21.74;100.00;98434.66;5072342;28;20645;-56
2023/06/23 00:26:47;;;;;;;10.00;8.77;;;;;;;21.86;100.00;98441.16;5072172;28;20749;-56
2023/06/23 00:29:13;;;;;;;10.20;9.13;;;;;;;21.87;100.00;98446.28;5012433;28;20241;-56
2023/06/23 00:31:38;;;;;;;10.70;9.38;;;;;;;21.95;100.00;98450.63;5012425;28;20735;-56
2023/06/23 00:34:04;;;;;;;11.40;9.85;;;;;;;21.91;100.00;98444.09;5012433;28;20206;-56
2023/06/23 00:36:30;;;;;;;11.18;9.38;;;;;;;21.75;100.00;98429.22;5012428;28;20582;-56
2023/06/23 00:38:56;;;;;;;10.18;9.15;;;;;;;21.92;100.00;98451.00;4992577;28;20627;-56
2023/06/23 00:41:22;;;;;;;10.52;9.02;;;;;;;21.81;100.00;98428.53;4992652;28;20234;-56
2023/06/23 00:43:50;;;;;;;10.15;9.10;;;;;;;21.77;100.00;98426.41;4994682;28;20199;-56
2023/06/23 00:46:20;;;;;;;10.23;9.00;;;;;;;21.77;100.00;98436.94;5011997;28;20678;-56
2023/06/23 00:48:47;;;;;;;10.90;9.80;;;;;;;21.83;100.00;98446.78;5012030;28;20240;-56
2023/06/23 00:51:15;;;;;;;9.70;8.82;;;;;;;21.76;100.00;98437.94;5012073;28;20668;-57
2023/06/23 00:53:46;;;;;;;10.50;9.40;;;;;;;21.63;100.00;98424.50;5011869;28;20187;-56
2023/06/23 00:56:13;;;;;;;10.13;9.23;;;;;;;21.63;100.00;98432.38;5012018;28;20170;-56
2023/06/23 00:58:39;;;;;;;10.93;9.80;;;;;;;21.67;100.00;98460.88;5011888;28;20724;-56
2023/06/23 01:01:05;;;;;;;10.60;9.57;;;;;;;21.52;100.00;98448.56;5046246;28;20276;-56
2023/06/23 01:03:31;;;;;;;10.57;9.57;;;;;;;21.63;100.00;98458.72;5050989;28;20243;-56
2023/06/23 01:06:04;;;;;;;10.48;9.38;;;;;;;21.60;100.00;98472.22;5050830;28;20192;-57
2023/06/23 01:09:09;;;;;;;10.50;9.40;;;;;;;21.44;100.00;98438.09;5051509;28;20655;-56
2023/06/23 01:11:49;;;;;;;9.73;8.77;;;;;;;21.60;100.00;98466.94;5093892;28;20199;-56
2023/06/23 01:14:29;;;;;;;11.35;9.45;;;;;;;21.54;100.00;98465.00;5031536;28;20189;-57
2023/06/23 01:17:03;;;;;;;11.38;9.63;;;;;;;21.50;100.00;98450.56;5031447;28;20627;-57
2023/06/23 01:19:54;;;;;;;10.40;9.35;;;;;;;21.49;100.00;98451.53;5031424;28;20215;-56
2023/06/23 01:22:45;;;;;;;10.48;9.48;;;;;;;21.40;100.00;98445.50;5031353;28;20251;-56
2023/06/23 01:25:21;;;;;;;11.10;9.82;;;;;;;21.39;100.00;98435.16;5031342;28;20235;-56
2023/06/23 01:28:15;;;;;;;11.52;9.50;;;;;;;21.46;100.00;98433.47;5031205;28;20201;-56
2023/06/23 01:30:46;;;;;;;10.85;9.48;;;;;;;21.56;100.00;98434.88;5031032;28;20190;-56
2023/06/23 01:33:18;;;;;;;9.75;8.88;;;;;;;21.58;100.00;98421.53;5031173;28;20658;-57
2023/06/23 01:35:49;;;;;;;10.43;9.32;;;;;;;21.52;100.00;98403.81;5031083;28;20223;-57
2023/06/23 01:38:27;;;;;;;9.98;9.02;;;;;;;21.56;100.00;98426.19;5031077;28;20174;-56
2023/06/23 01:40:58;;;;;;;11.40;9.10;;;;;;;21.44;100.00;98403.88;5031001;28;20209;-56
2023/06/23 01:43:29;;;;;;;10.50;9.50;;;;;;;21.48;100.00;98423.56;5030930;28;20189;-56
2023/06/23 01:46:03;;;;;;;10.05;9.15;;;;;;;21.33;100.00;98410.31;5079498;28;20184;-56
2023/06/23 01:48:31;;;;;;;10.40;9.23;;;;;;;21.13;100.00;98400.38;5030670;28;20350;-56
2023/06/23 01:50:58;;;;;;;10.88;9.55;;;;;;;21.17;100.00;98410.41;4991283;28;20194;-56
2023/06/23 01:53:26;;;;;;;10.23;9.18;;;;;;;21.10;100.00;98390.22;4991309;28;20183;-56
2023/06/23 01:55:54;;;;;;;10.45;9.40;;;;;;;21.19;100.00;98410.22;4991276;28;20353;-58
2023/06/23 01:58:21;;;;;;;9.88;8.90;;;;;;;21.31;100.00;98424.63;4991261;28;20248;-56
2023/06/23 02:00:48;;;;;;;11.50;9.02;;;;;;;21.33;100.00;98427.94;4991206;28;20199;-58
2023/06/23 02:03:15;;;;;;;11.27;10.15;;;;;;;21.12;100.00;98404.00;4991144;28;20254;-58
2023/06/23 02:05:45;;;;;;;10.95;9.45;;;;;;;21.30;100.00;98417.75;4991067;28;20273;-58
2023/06/23 02:08:13;;;;;;;10.57;9.48;;;;;;;21.31;100.00;98429.91;4991018;28;20752;-57
2023/06/23 02:10:40;;;;;;;10.38;9.40;;;;;;;21.27;100.00;98424.16;4971488;28;20195;-58
2023/06/23 02:13:08;;;;;;;10.32;9.32;;;;;;;21.22;100.00;98415.16;4971559;28;20184;-58
2023/06/23 02:15:35;;;;;;;8.88;7.97;;;;;;;21.40;100.00;98431.53;4971267;28;20335;-58
2023/06/23 02:18:02;;;;;;;11.00;9.27;;;;;;;21.55;100.00;98438.50;4952101;29;20211;-58
2023/06/23 02:20:29;;;;;;;10.02;9.05;;;;;;;21.54;100.00;98446.56;4952209;29;20196;-58
2023/06/23 02:22:56;;;;;;;10.38;9.38;;;;;;;21.47;100.00;98446.47;4987783;28;20183;-58
2023/06/23 02:25:22;;;;;;;11.48;9.80;;;;;;;21.36;100.00;98422.31;5001741;28;20341;-58
2023/06/23 02:27:48;;;;;;;11.23;8.70;;;;;;;21.47;100.00;98457.00;5030015;28;20687;-58
2023/06/23 02:30:17;;;;;;;10.50;9.35;;;;;;;21.20;100.00;98427.66;5030081;28;20229;-57
2023/06/23 02:32:47;;;;;;;11.57;9.05;;;;;;;21.21;100.00;98440.66;4990479;28;20214;-58
2023/06/23 02:35:13;;;;;;;10.23;9.15;;;;;;;21.28;100.00;98461.84;4990640;28;20189;-58
2023/06/23 02:37:41;;;;;;;10.18;9.18;;;;;;;21.12;100.00;98440.84;4990612;28;20187;-58
2023/06/23 02:40:16;;;;;;;11.70;9.27;;;;;;;21.11;100.00;98455.00;4990540;28;20274;-58
2023/06/23 02:42:56;;;;;;;9.13;8.13;;;;;;;21.03;100.00;98441.88;4990885;28;20186;-58
2023/06/23 02:45:38;;;;;;;9.55;8.68;;;;;;;21.06;100.00;98438.91;4990969;28;20182;-58
2023/06/23 02:48:09;;;;;;;10.38;9.38;;;;;;;21.20;100.00;98459.22;4994342;28;20218;-59
2023/06/23 02:50:36;;;;;;;9.65;8.75;;;;;;;21.21;100.00;98472.22;5030007;28;20546;-57
2023/06/23 02:53:07;;;;;;;11.93;8.80;;;;;;;21.18;100.00;98471.75;5029868;28;20186;-58
2023/06/23 02:55:39;;;;;;;9.80;8.90;;;;;;;21.25;100.00;98477.97;5029935;28;20245;-55
2023/06/23 02:58:08;;;;;;;11.18;9.15;;;;;;;21.25;100.00;98454.28;5029798;28;20284;-55
2023/06/23 03:00:37;;;;;;;10.40;9.27;;;;;;;21.09;100.00;98449.09;5029781;28;20186;-55
2023/06/23 03:03:08;;;;;;;11.98;9.68;;;;;;;21.06;100.00;98447.63;5044860;28;20187;-56
2023/06/23 03:05:33;;;;;;;10.15;9.18;;;;;;;21.08;100.00;98468.47;5092275;28;20649;-56
2023/06/23 03:08:00;;;;;;;10.07;8.90;;;;;;;21.17;100.00;98472.75;5091853;28;20292;-56
2023/06/23 03:10:27;;;;;;;10.50;9.60;;;;;;;21.15;100.00;98465.00;5092067;28;20657;-56
2023/06/23 03:12:53;;;;;;;10.32;9.27;;;;;;;21.26;100.00;98453.28;5092140;28;20179;-56
2023/06/23 03:15:18;;;;;;;11.00;9.15;;;;;;;21.22;100.00;98454.63;5092109;28;20183;-56
2023/06/23 03:17:48;;;;;;;10.13;9.13;;;;;;;21.26;100.00;98469.06;5069308;28;20231;-57
2023/06/23 03:20:27;;;;;;;12.27;9.68;;;;;;;21.16;100.00;98452.69;5069460;28;20633;-56
2023/06/23 03:23:07;;;;;;;10.40;9.40;;;;;;;21.24;100.00;98471.06;5069509;28;20591;-56
2023/06/23 03:25:36;;;;;;;12.80;9.65;;;;;;;21.14;100.00;98471.28;5069628;28;20172;-56
2023/06/23 03:28:06;;;;;;;9.98;9.07;;;;;;;21.13;100.00;98466.16;5070951;28;20718;-56
2023/06/23 03:30:39;;;;;;;10.95;9.93;;;;;;;20.98;100.00;98444.19;5071319;28;20188;-56
2023/06/23 03:33:12;;;;;;;12.18;9.55;;;;;;;21.16;100.00;98465.84;5053253;28;20629;-56
2023/06/23 03:35:44;;;;;;;11.88;9.25;;;;;;;21.13;100.00;98474.06;5053247;28;20679;-56
2023/06/23 03:38:18;;;;;;;11.60;9.48;;;;;;;21.04;100.00;98451.41;5053189;28;20189;-56
2023/06/23 03:40:54;;;;;;;13.50;9.13;;;;;;;21.12;100.00;98461.91;5053174;28;20270;-56
2023/06/23 03:43:29;;;;;;;10.35;9.43;;;;;;;21.09;100.00;98447.28;5053060;28;20196;-56
2023/06/23 03:45:59;;;;;;;9.65;8.65;;;;;;;21.20;100.00;98481.13;5053090;28;20188;-56
2023/06/23 03:48:28;;;;;;;10.10;9.15;;;;;;;21.10;100.00;98479.69;5061139;28;20204;-57
2023/06/23 03:50:57;;;;;;;9.90;9.00;;;;;;;21.11;100.00;98462.91;5075286;28;20693;-57
2023/06/23 03:53:24;;;;;;;12.63;9.57;;;;;;;21.24;100.00;98473.69;5075513;28;20255;-57
2023/06/23 03:55:51;;;;;;;11.85;9.02;;;;;;;21.17;100.00;98451.69;5075182;28;20654;-57
2023/06/23 03:58:19;;;;;;;10.23;9.23;;;;;;;21.36;100.00;98469.69;5075079;28;20183;-57
2023/06/23 04:00:47;;;;;;;11.15;9.40;;;;;;;21.44;100.00;98488.13;5075095;28;20264;-57
2023/06/23 04:03:15;;;;;;;13.07;9.48;;;;;;;21.32;100.00;98457.91;5074766;28;20183;-57
2023/06/23 04:05:43;;;;;;;10.23;9.15;;;;;;;21.36;100.00;98459.16;5075025;28;20267;-58
2023/06/23 04:08:10;;;;;;;9.50;8.70;;;;;;;21.52;100.00;98480.19;5074563;28;20624;-57
2023/06/23 04:10:37;;;;;;;10.43;9.35;;;;;;;21.54;100.00;98484.28;5074949;28;20282;-57
2023/06/23 04:13:04;;;;;;;10.55;9.55;;;;;;;21.54;100.00;98471.09;5074837;28;20180;-57
2023/06/23 04:15:32;;;;;;;10.35;9.18;;;;;;;21.48;100.00;98468.34;5074830;28;20271;-57
2023/06/23 04:17:59;;;;;;;10.30;9.30;;;;;;;21.57;100.00;98470.75;5075105;28;20182;-57
2023/06/23 04:20:25;;;;;;;10.40;9.40;;;;;;;21.47;100.00;98464.91;5074722;28;20230;-56
2023/06/23 04:22:52;;;;;;;9.82;8.93;;;;;;;21.43;100.00;98457.50;5074746;28;20172;-56
2023/06/23 04:25:20;;;;;;;11.38;9.82;;;;;;;21.67;100.00;98484.56;5074631;28;20180;-56
2023/06/23 04:27:50;;;;;;;9.93;8.95;;;;;;;21.80;100.00;98490.09;5074506;28;20196;-56
2023/06/23 04:30:18;;;;;;;10.90;9.43;;;;;;;21.81;100.00;98496.19;5032052;28;20193;-56
2023/06/23 04:32:44;;;;;;;10.57;8.98;;;;;;;21.80;100.00;98490.09;5032190;28;20197;-57
2023/06/23 04:35:10;;;;;;;11.50;9.50;;;;;;;21.80;100.00;98494.56;5032165;28;20280;-57
2023/06/23 04:37:49;;;;;;;9.95;9.05;;;;;;;21.78;100.00;98472.81;5032421;28;20276;-57
2023/06/23 04:40:34;;;;;;;10.18;9.18;;;;;;;21.87;100.00;98491.06;5031959;28;20702;-57
2023/06/23 04:43:33;;;;;;;10.52;9.35;;;;;;;21.98;100.00;98485.38;5032079;28;20166;-57
2023/06/23 04:46:07;;;;;;;9.93;9.02;;;;;;;22.03;100.00;98485.66;5000901;28;20195;-57
2023/06/23 04:48:41;;;;;;;10.18;9.05;;;;;;;22.09;100.00;98481.53;5012070;28;20236;-57
2023/06/23 04:51:09;;;;;;;10.38;9.27;;;;;;;22.23;100.00;98484.22;5012085;28;20614;-57
2023/06/23 04:53:41;;;;;;;9.82;8.93;;;;;;;22.28;100.00;98483.69;5012077;28;20190;-57
2023/06/23 04:56:08;;;;;;;10.10;9.20;;;;;;;22.27;100.00;98471.50;5012057;28;20244;-57
2023/06/23 04:58:37;;;;;;;11.07;8.50;;;;;;;22.51;100.00;98492.44;5011964;28;20182;-57
2023/06/23 05:01:07;;;;;;;10.05;9.05;;;;;;;22.49;100.00;98486.53;5028725;28;20193;-57
2023/06/23 05:03:34;;;;;;;11.38;9.00;;;;;;;22.57;100.00;98494.34;5011718;28;20190;-57
2023/06/23 05:06:00;;;;;;;10.98;9.77;;;;;;;22.62;100.00;98492.00;5011804;28;20276;-57
2023/06/23 05:08:28;;;;;;;10.02;9.02;;;;;;;22.80;100.00;98505.69;5011721;28;20214;-57
2023/06/23 05:10:59;;;;;;;10.75;9.60;;;;;;;22.87;100.00;98488.13;5011611;28;20679;-57
2023/06/23 05:13:28;;;;;;;10.30;9.10;;;;;;;22.93;100.00;98506.72;5011657;28;20193;-57
2023/06/23 05:15:54;;;;;;;10.13;9.13;;;;;;;23.02;100.00;98505.63;5011721;28;20675;-57
2023/06/23 05:18:22;;;;;;;10.00;9.10;;;;;;;23.07;100.00;98491.91;5029010;28;20221;-57
2023/06/23 05:20:48;;;;;;;10.73;9.73;;;;;;;23.20;100.00;98508.75;5031250;28;20269;-57
2023/06/23 05:23:17;;;;;;;10.48;9.43;;;;;;;23.15;100.00;98491.81;5031272;28;20213;-57
2023/06/23 05:25:47;;;;;;;9.90;9.00;;;;;;;23.28;100.00;98499.94;5031202;28;20182;-57
2023/06/23 05:28:15;;;;;;;10.00;9.00;;;;;;;23.33;100.00;98498.41;5030949;28;20684;-57
2023/06/23 05:30:42;;;;;;;11.20;9.07;;;;;;;23.38;100.00;98501.31;5030946;28;20214;-57
2023/06/23 05:33:09;;;;;;;9.75;8.77;;;;;;;23.48;100.00;98507.13;5031137;28;20178;-57
2023/06/23 05:35:37;;;;;;;10.98;9.13;;;;;;;23.56;100.00;98508.84;5070384;28;20193;-57
2023/06/23 05:38:04;;;;;;;11.18;8.90;;;;;;;23.61;100.00;98506.47;5073338;28;20176;-57
2023/06/23 05:40:30;;;;;;;10.35;9.07;;;;;;;23.59;100.00;98506.66;5073187;28;20196;-57
2023/06/23 05:42:55;;;;;;;11.00;9.27;;;;;;;23.51;100.00;98480.34;5073159;28;20200;-57
2023/06/23 05:45:21;;;;;;;11.15;8.95;;;;;;;23.67;100.00;98504.72;5073120;28;20176;-57
2023/06/23 05:47:58;;;;;;;9.38;8.48;;;;;;;23.83;100.00;98508.19;5072972;28;20193;-57
2023/06/23 05:50:27;;;;;;;10.52;9.63;;;;;;;23.85;100.00;98504.34;5072444;28;20187;-57
2023/06/23 05:52:59;;;;;;;9.35;8.55;;;;;;;23.88;99.19;98504.00;5073007;28;20651;-57
2023/06/23 05:55:28;;;;;;;10.65;9.63;;;;;;;23.86;98.96;98485.63;5072926;28;20634;-57
2023/06/23 05:58:00;;;;;;;10.93;8.82;;;;;;;24.02;97.44;98496.03;5072924;28;20694;-56
2023/06/23 06:00:32;;;;;;;10.68;8.40;;;;;;;24.23;97.57;98512.94;5072811;28;20215;-56
2023/06/23 06:03:02;;;;;;;9.65;8.65;;;;;;;24.33;96.69;98509.75;5072810;28;20161;-57
2023/06/23 06:05:29;;;;;;;10.10;9.02;;;;;;;24.45;98.03;98508.25;5072731;28;20180;-56
2023/06/23 06:07:57;;;;;;;10.02;9.07;;;;;;;24.52;96.66;98498.56;5072639;28;20290;-57
2023/06/23 06:10:23;;;;;;;10.10;9.07;;;;;;;24.58;96.48;98509.44;5072380;28;20169;-57
2023/06/23 06:12:51;;;;;;;9.70;8.80;;;;;;;24.66;94.89;98505.63;5072644;28;20177;-57
2023/06/23 06:15:17;;;;;;;9.93;9.02;;;;;;;24.70;92.30;98480.41;5072577;28;20311;-57
2023/06/23 06:17:43;;;;;;;9.18;8.27;;;;;;;24.93;91.23;98504.00;5072577;28;20172;-57
2023/06/23 06:20:12;;;;;;;11.25;8.95;;;;;;;24.83;92.08;98487.63;5072455;28;20272;-57
2023/06/23 06:22:40;;;;;;;10.10;9.20;;;;;;;24.86;91.87;98490.72;5072490;28;20600;-57
2023/06/23 06:25:08;;;;;;;9.88;8.98;;;;;;;25.09;90.42;98506.34;5072448;28;20263;-57
2023/06/23 06:27:34;;;;;;;10.80;8.90;;;;;;;25.21;89.40;98507.44;5072575;28;20192;-57
2023/06/23 06:30:02;;;;;;;10.68;9.50;;;;;;;25.25;88.94;98503.44;5072470;28;20540;-57
2023/06/23 06:32:29;;;;;;;10.15;9.23;;;;;;;25.31;88.81;98506.09;5090010;28;20241;-57
2023/06/23 06:35:01;;;;;;;9.38;8.48;;;;;;;25.43;88.21;98512.50;5092472;28;20184;-57
2023/06/23 06:37:28;;;;;;;10.45;9.50;;;;;;;25.36;90.68;98493.09;5092491;28;20175;-57
2023/06/23 06:39:54;;;;;;;11.98;10.75;;;;;;;25.51;96.07;98500.91;5092517;28;20172;-57
2023/06/23 06:42:20;;;;;;;11.38;10.27;;;;;;;25.61;95.81;98502.16;5049743;28;20281;-57
2023/06/23 06:44:45;;;;;;;11.18;10.07;;;;;;;25.76;94.12;98510.81;5049866;28;20284;-57
2023/06/23 06:47:11;;;;;;;10.98;9.98;;;;;;;25.81;90.84;98502.25;5049734;28;20204;-57
2023/06/23 06:49:39;;;;;;;11.32;10.15;;;;;;;25.90;90.97;98506.41;5049767;28;20189;-57
2023/06/23 06:52:06;;;;;;;12.15;10.80;;;;;;;26.00;92.36;98507.66;5049787;28;20224;-57
2023/06/23 06:54:33;;;;;;;14.77;11.10;;;;;;;26.11;92.90;98504.44;5049736;28;20181;-57
2023/06/23 06:56:58;;;;;;;15.95;11.55;;;;;;;26.21;92.79;98501.38;5049705;28;20213;-57
2023/06/23 06:59:24;;;;;;;12.55;11.25;;;;;;;26.30;92.24;98503.66;5049697;28;20224;-57
2023/06/23 07:01:50;;;;;;;11.77;10.60;;;;;;;26.32;92.19;98496.31;5049657;28;20189;-57
2023/06/23 07:04:16;;;;;;;12.32;10.93;;;;;;;26.43;91.28;98493.06;5033316;28;20281;-57
2023/06/23 07:06:41;;;;;;;11.07;9.98;;;;;;;26.54;91.43;98511.06;5033751;28;20212;-57
2023/06/23 07:09:07;;;;;;;11.95;10.80;;;;;;;26.60;91.67;98502.28;5033750;28;20276;-57
2023/06/23 07:11:33;;;;;;;13.73;11.10;;;;;;;26.60;91.90;98502.28;5033730;28;20173;-57
2023/06/23 07:13:59;;;;;;;13.35;12.05;;;;;;;26.60;90.91;98515.53;5033637;28;20196;-57
2023/06/23 07:16:30;;;;;;;14.68;12.35;;;;;;;26.68;89.93;98506.56;5033700;28;20691;-57
2023/06/23 07:18:56;;;;;;;15.00;12.15;;;;;;;26.58;89.73;98495.56;5033659;28;20193;-57
2023/06/23 07:21:21;;;;;;;15.10;12.50;;;;;;;26.70;85.90;98497.38;5033893;28;20640;-57
2023/06/23 07:23:47;;;;;;;14.82;11.75;;;;;;;26.82;86.44;98505.56;5033550;28;20261;-56
2023/06/23 07:26:12;;;;;;;13.77;12.40;;;;;;;26.83;85.63;98501.88;5033515;28;20643;-57
2023/06/23 07:28:38;;;;;;;14.80;12.35;;;;;;;27.00;85.49;98516.38;5033393;28;20213;-57
2023/06/23 07:31:03;;;;;;;13.63;12.23;;;;;;;26.89;84.51;98491.22;5033269;28;20196;-57
2023/06/23 07:33:28;;;;;;;14.40;12.57;;;;;;;27.07;85.49;98512.69;5033375;28;20706;-57
2023/06/23 07:35:54;;;;;;;13.55;11.35;;;;;;;27.02;85.11;98496.56;5081890;28;20257;-57
2023/06/23 07:38:19;;;;;;;13.98;12.20;;;;;;;27.19;85.67;98512.91;5095861;28;20264;-57
2023/06/23 07:40:45;;;;;;;13.40;12.00;;;;;;;27.17;86.76;98502.47;5095769;28;20665;-57
2023/06/23 07:43:10;;;;;;;13.95;12.20;;;;;;;27.20;85.13;98495.94;5095729;28;20207;-57
2023/06/23 07:45:36;;;;;;;15.55;13.02;;;;;;;27.41;83.98;98515.09;5095689;28;20180;-57
2023/06/23 07:48:01;;;;;;;13.23;11.48;;;;;;;27.35;85.58;98505.28;5095483;28;20199;-57
2023/06/23 07:50:27;;;;;;;16.80;12.50;;;;;;;27.19;84.56;98487.16;5095636;28;20172;-57
2023/06/23 07:52:53;;;;;;;13.70;12.32;;;;;;;27.33;84.98;98495.88;5095515;28;20172;-57
2023/06/23 07:55:19;;;;;;;16.75;12.65;;;;;;;27.32;86.16;98489.78;5095520;28;20654;-57
2023/06/23 07:57:45;;;;;;;13.13;11.77;;;;;;;27.31;86.20;98477.50;5095470;28;20207;-57
2023/06/23 08:00:11;;;;;;;14.43;12.57;;;;;;;27.33;85.73;98472.81;5095049;28;20199;-57
2023/06/23 08:02:36;;;;;;;12.98;11.52;;;;;;;27.44;85.84;98485.44;5095064;28;20175;-57
2023/06/23 08:05:03;;;;;;;13.20;11.90;;;;;;;27.39;86.58;98485.25;5094988;28;20179;-57
2023/06/23 08:07:28;;;;;;;14.45;12.75;;;;;;;27.44;85.68;98493.41;5095147;28;20680;-57
2023/06/23 08:09:54;;;;;;;13.68;12.32;;;;;;;27.23;84.75;98464.44;5095309;28;20176;-57
2023/06/23 08:12:19;;;;;;;15.02;12.40;;;;;;;27.34;84.90;98492.22;5072416;28;20271;-57
2023/06/23 08:14:45;;;;;;;15.00;12.32;;;;;;;27.28;85.78;98472.59;5051817;28;20663;-57
2023/06/23 08:17:10;;;;;;;15.25;12.75;;;;;;;27.48;85.80;98489.31;5052509;28;20189;-57
2023/06/23 08:19:36;;;;;;;14.95;12.45;;;;;;;27.32;85.43;98473.81;5052437;28;20185;-57
2023/06/23 08:22:03;;;;;;;16.02;13.65;;;;;;;27.16;88.61;98468.97;5052377;28;20668;-57
2023/06/23 08:24:28;;;;;;;17.83;12.23;;;;;;;27.00;86.22;98453.44;5052219;28;20185;-57
2023/06/23 08:26:54;;;;;;;14.30;12.02;;;;;;;27.20;87.15;98462.22;5052130;28;20294;-57
2023/06/23 08:29:19;;;;;;;11.85;10.60;;;;;;;27.37;82.24;98459.91;5052225;28;20177;-57
2023/06/23 08:31:45;;;;;;;12.02;10.75;;;;;;;27.62;83.75;98474.94;5052020;28;20673;-57
2023/06/23 08:34:10;;;;;;;14.73;11.35;;;;;;;27.55;80.86;98466.19;5052148;28;20181;-57
2023/06/23 08:36:36;;;;;;;11.38;10.20;;;;;;;27.69;80.64;98467.75;5012304;28;20191;-57
2023/06/23 08:39:01;;;;;;;12.98;11.65;;;;;;;27.81;80.04;98463.41;5012345;28;20190;-57
2023/06/23 08:41:29;;;;;;;13.82;10.75;;;;;;;27.75;79.31;98452.81;5012311;28;20195;-57
2023/06/23 08:43:56;;;;;;;12.65;11.07;;;;;;;27.80;79.53;98448.50;5012247;28;20273;-57
2023/06/23 08:46:27;;;;;;;13.07;11.68;;;;;;;28.03;79.52;98475.38;5012167;28;20232;-58
2023/06/23 08:48:55;;;;;;;12.60;11.35;;;;;;;28.12;78.25;98471.44;5014983;28;20189;-57
2023/06/23 08:51:21;;;;;;;13.30;11.10;;;;;;;28.06;77.58;98466.16;5031936;28;20182;-57
2023/06/23 08:53:46;;;;;;;12.95;11.00;;;;;;;28.07;77.77;98471.28;5031893;28;20228;-57
2023/06/23 08:56:13;;;;;;;12.68;11.35;;;;;;;28.02;76.22;98457.78;5031781;28;20710;-57
2023/06/23 08:58:40;;;;;;;11.57;10.48;;;;;;;28.20;76.04;98470.34;5031743;28;20567;-57
2023/06/23 09:01:05;;;;;;;14.35;10.52;;;;;;;28.19;75.95;98455.41;5031692;28;20731;-57
2023/06/23 09:03:31;;;;;;;12.48;11.18;;;;;;;28.21;76.11;98443.53;5031772;28;20272;-57
2023/06/23 09:06:00;;;;;;;11.55;10.40;;;;;;;28.33;76.06;98447.13;5031608;28;20193;-57
2023/06/23 09:08:26;;;;;;;12.48;11.00;;;;;;;28.31;76.41;98421.75;5084636;28;20273;-57
2023/06/23 09:10:51;;;;;;;13.00;10.43;;;;;;;28.47;75.91;98431.91;5094043;28;20176;-57
2023/06/23 09:13:24;;;;;;;12.45;11.23;;;;;;;28.72;72.99;98441.50;5094009;28;20179;-57
2023/06/23 09:15:50;;;;;;;12.23;10.98;;;;;;;28.63;73.33;98437.47;5093930;28;20306;-57
2023/06/23 09:18:17;;;;;;;11.27;10.27;;;;;;;28.78;73.53;98448.63;5093888;28;20179;-57
2023/06/23 09:20:45;;;;;;;13.02;11.52;;;;;;;28.83;72.85;98435.47;5093559;28;20172;-57
2023/06/23 09:23:19;;;;;;;14.32;11.13;;;;;;;28.80;72.42;98419.91;5093693;28;20183;-57
2023/06/23 09:25:47;;;;;;;11.30;10.30;;;;;;;28.81;71.76;98453.50;5092782;28;20260;-57
2023/06/23 09:28:29;;;;;;;12.18;10.93;;;;;;;28.87;71.00;98452.63;5093523;28;20691;-57
2023/06/23 09:30:57;;;;;;;12.02;10.82;;;;;;;28.93;71.78;98442.94;5050749;28;20196;-57
2023/06/23 09:33:24;;;;;;;11.90;10.80;;;;;;;28.85;71.09;98420.06;5050858;28;20561;-57
2023/06/23 09:35:55;;;;;;;11.80;10.60;;;;;;;28.93;70.37;98433.09;5050777;28;20200;-57
2023/06/23 09:38:22;;;;;;;15.80;11.45;;;;;;;29.14;70.15;98445.25;5050742;28;20569;-57
2023/06/23 09:41:00;;;;;;;12.63;10.95;;;;;;;29.28;70.28;98447.53;5030695;28;20178;-57
2023/06/23 09:43:25;;;;;;;12.68;10.65;;;;;;;29.25;69.25;98426.63;5030713;28;20198;-57
2023/06/23 09:45:52;;;;;;;11.95;10.90;;;;;;;29.49;68.45;98436.41;5030746;28;20190;-57
2023/06/23 09:48:18;;;;;;;13.15;11.00;;;;;;;29.70;67.06;98441.28;5030718;28;20290;-57
2023/06/23 09:50:44;;;;;;;11.80;10.70;;;;;;;29.79;67.11;98436.47;5030641;28;20221;-57
2023/06/23 09:53:10;;;;;;;11.65;10.57;;;;;;;29.71;64.89;98426.09;5030744;28;20696;-57
2023/06/23 09:55:36;;;;;;;11.05;9.98;;;;;;;29.79;65.74;98433.78;5030626;28;20186;-57
2023/06/23 09:58:10;;;;;;;11.65;10.52;;;;;;;29.86;66.66;98432.63;5030600;28;20185;-57
2023/06/23 10:00:35;;;;;;;12.38;11.15;;;;;;;29.90;65.77;98425.03;5030584;28;20189;-57
2023/06/23 10:03:02;;;;;;;14.35;11.05;;;;;;;30.03;64.46;98420.28;5049750;28;20192;-57
2023/06/23 10:05:38;;;;;;;12.82;11.50;;;;;;;30.02;65.81;98412.53;5050314;28;20273;-57
2023/06/23 10:08:12;;;;;;;10.85;9.73;;;;;;;30.10;64.21;98410.38;5050377;28;20224;-57
2023/06/23 10:10:42;;;;;;;10.32;9.48;;;;;;;29.95;63.30;98401.94;5011352;28;20190;-57
2023/06/23 10:13:08;;;;;;;9.35;8.55;;;;;;;30.03;63.63;98398.94;5050391;28;20200;-57
2023/06/23 10:15:35;;;;;;;10.27;9.15;;;;;;;30.18;59.63;98407.38;5050184;28;20196;-57
2023/06/23 10:18:01;;;;;;;9.00;8.30;;;;;;;30.11;59.51;98385.31;5050536;28;20216;-57
2023/06/23 10:20:27;;;;;;;8.85;8.13;;;;;;;30.33;57.44;98398.91;5050235;28;20250;-57
2023/06/23 10:22:55;;;;;;;8.48;7.55;;;;;;;30.51;54.95;98418.34;4951962;29;20259;-57
2023/06/23 10:25:22;;;;;;;8.68;7.80;;;;;;;30.53;55.68;98410.06;4952155;29;20189;-57
2023/06/23 10:27:51;;;;;;;9.02;8.20;;;;;;;30.57;55.08;98413.91;4952215;28;20263;-57
2023/06/23 10:30:17;;;;;;;9.65;7.47;;;;;;;30.75;54.61;98417.34;4952019;29;20193;-56
2023/06/23 10:32:49;;;;;;;8.82;8.05;;;;;;;30.89;53.26;98407.22;4952018;29;20204;-57
2023/06/23 10:35:19;;;;;;;11.65;7.70;;;;;;;30.81;54.36;98395.00;4952042;29;20225;-56
2023/06/23 10:37:48;;;;;;;9.05;8.25;;;;;;;30.86;54.82;98392.47;4951684;28;20206;-57
2023/06/23 10:40:20;;;;;;;9.88;8.50;;;;;;;31.04;55.76;98386.97;4951960;29;20193;-57
2023/06/23 10:42:48;;;;;;;9.40;8.02;;;;;;;31.30;54.61;98407.84;4989895;28;20187;-57
2023/06/23 10:45:13;;;;;;;11.45;7.82;;;;;;;31.27;52.46;98392.31;4990635;28;20187;-57
2023/06/23 10:47:40;;;;;;;7.93;7.15;;;;;;;31.63;51.47;98408.00;4990660;28;20220;-57
2023/06/23 10:50:08;;;;;;;8.98;7.57;;;;;;;31.80;49.37;98381.28;4990813;28;20262;-56
2023/06/23 10:52:34;;;;;;;8.40;7.60;;;;;;;31.90;48.03;98384.16;4990458;28;20229;-56
2023/06/23 10:54:59;;;;;;;8.90;7.38;;;;;;;32.10;48.53;98393.34;5009534;28;20217;-56
2023/06/23 10:57:25;;;;;;;8.65;7.43;;;;;;;32.23;47.64;98395.72;5009988;28;20240;-57
2023/06/23 11:00:05;;;;;;;7.70;6.90;;;;;;;32.41;48.24;98379.41;5028675;28;20185;-57
2023/06/23 11:02:49;;;;;;;7.82;7.10;;;;;;;32.62;48.67;98376.00;5069786;28;20184;-57
2023/06/23 11:05:16;;;;;;;8.10;7.40;;;;;;;32.43;47.96;98366.63;5069747;28;20406;-57
2023/06/23 11:08:01;;;;;;;9.43;7.65;;;;;;;32.46;47.43;98366.09;5011228;28;20296;-56
2023/06/23 11:10:46;;;;;;;10.43;7.38;;;;;;;32.48;48.74;98371.22;5029734;28;20189;-56
2023/06/23 11:13:12;;;;;;;8.80;8.10;;;;;;;32.57;49.87;98357.16;5029745;28;20181;-57
2023/06/23 11:15:37;;;;;;;8.48;7.78;;;;;;;32.92;49.13;98371.09;5029676;28;20189;-57
2023/06/23 11:18:06;;;;;;;8.35;7.47;;;;;;;32.90;47.58;98373.22;5029670;28;20244;-57
2023/06/23 11:20:42;;;;;;;8.15;7.35;;;;;;;33.10;46.20;98368.09;5029641;28;20174;-56
2023/06/23 11:23:12;;;;;;;8.02;7.22;;;;;;;33.12;45.02;98371.38;5029703;28;20197;-57
2023/06/23 11:25:49;;;;;;;8.10;7.18;;;;;;;33.33;47.86;98361.72;5029639;28;20174;-57